Time;durP1;ratioP1;P1;durP2;ratioP2;P2;SDS_P1;SDS_P2;PMS_P1;PMS_P2;Temp;Humidity;BMP_temperature;BMP_pressure;BME280_temperature;BME280_humidity;BME280_pressure;Samples;Min_cycle;Max_cycle;Signal;HPM_P1;HPM_P2
2023/10/11 00:02:20;;;;;;;23.80;14.80;;;;;;;1.00;100.00;102052.06;107487;1255;71960;-87
2023/10/11 00:04:49;;;;;;;20.90;14.90;;;;;;;0.99;100.00;102056.54;107396;1255;68544;-87
2023/10/11 00:07:25;;;;;;;22.50;15.10;;;;;;;0.95;100.00;102055.05;107474;1253;73218;-86
2023/10/11 00:09:54;;;;;;;24.30;14.20;;;;;;;0.87;100.00;102050.32;107463;1245;60991;-84
2023/10/11 00:12:24;;;;;;;22.70;14.70;;;;;;;0.82;100.00;102045.23;107919;1244;60038;-90
2023/10/11 00:14:57;;;;;;;22.50;14.00;;;;;;;0.91;100.00;102046.68;107592;1253;70518;-85
2023/10/11 00:17:28;;;;;;;23.30;14.40;;;;;;;0.93;100.00;102046.64;107414;1251;72011;-86
2023/10/11 00:19:58;;;;;;;23.20;15.10;;;;;;;0.88;100.00;102047.73;107392;1255;68851;-85
2023/10/11 00:22:27;;;;;;;22.20;14.50;;;;;;;0.79;100.00;102047.66;107372;1255;71742;-86
2023/10/11 00:24:56;;;;;;;24.70;14.80;;;;;;;0.71;100.00;102043.97;107377;1253;61180;-85
2023/10/11 00:27:28;;;;;;;24.90;14.00;;;;;;;0.66;100.00;102039.91;107306;1252;61210;-85
2023/10/11 00:29:58;;;;;;;23.20;14.50;;;;;;;0.60;100.00;102042.20;107135;1241;71919;-85
2023/10/11 00:32:27;;;;;;;21.60;14.40;;;;;;;0.51;100.00;102044.16;107192;1247;70171;-85
2023/10/11 00:34:56;;;;;;;25.60;15.80;;;;;;;0.41;100.00;102046.83;107001;1255;67592;-85
2023/10/11 00:37:25;;;;;;;21.60;14.10;;;;;;;0.32;100.00;102041.25;107134;1255;71395;-85
2023/10/11 00:39:56;;;;;;;22.20;15.10;;;;;;;0.26;100.00;102039.08;107136;1255;62168;-86
2023/10/11 00:42:25;;;;;;;24.20;14.80;;;;;;;0.20;100.00;102037.41;107304;1247;61275;-85
2023/10/11 00:44:54;;;;;;;21.30;14.50;;;;;;;0.14;100.00;102037.96;107374;1246;73456;-85
2023/10/11 00:47:23;;;;;;;21.60;14.50;;;;;;;0.14;100.00;102036.27;107377;1246;71956;-87
2023/10/11 00:49:53;;;;;;;22.00;14.40;;;;;;;0.09;100.00;102030.30;107052;1249;68449;-86
2023/10/11 00:52:22;;;;;;;21.20;13.10;;;;;;;0.07;100.00;102031.35;107137;1246;71337;-81
2023/10/11 00:54:51;;;;;;;22.30;14.70;;;;;;;0.11;100.00;102029.09;107244;1243;58949;-77
2023/10/11 00:57:21;;;;;;;20.00;13.60;;;;;;;0.18;100.00;102026.30;107282;1255;59092;-84
2023/10/11 00:59:50;;;;;;;20.20;14.20;;;;;;;0.16;100.00;102025.78;107300;1246;72392;-77
2023/10/11 01:02:20;;;;;;;23.20;16.50;;;;;;;0.16;100.00;102028.02;107286;1244;72313;-81
2023/10/11 01:04:49;;;;;;;42.30;27.70;;;;;;;0.32;100.00;102028.91;107398;1244;69556;-80
2023/10/11 01:07:18;;;;;;;32.80;23.50;;;;;;;0.46;100.00;102027.25;107347;1244;72273;-80
2023/10/11 01:09:47;;;;;;;33.80;23.70;;;;;;;0.63;100.00;102031.37;107207;1249;59992;-80
2023/10/11 01:12:16;;;;;;;34.70;24.70;;;;;;;0.60;100.00;102033.63;107335;1252;59067;-80
2023/10/11 01:14:57;;;;;;;36.70;25.10;;;;;;;0.52;100.00;102037.13;107303;1255;70155;-83
2023/10/11 01:17:31;;;;;;;44.60;29.30;;;;;;;0.49;100.00;102039.04;107375;1244;72120;-83
2023/10/11 01:20:04;;;;;;;54.20;39.10;;;;;;;0.60;100.00;102044.94;107221;1246;70025;-80
2023/10/11 01:22:34;;;;;;;60.90;42.60;;;;;;;0.75;100.00;102046.34;107244;1246;74349;-82
2023/10/11 01:25:05;;;;;;;70.20;48.40;;;;;;;0.81;100.00;102049.70;107365;1245;61904;-83
2023/10/11 01:27:36;;;;;;;72.60;52.00;;;;;;;0.92;100.00;102051.12;107483;1245;60574;-83
2023/10/11 01:30:09;;;;;;;75.00;52.10;;;;;;;0.93;100.00;102053.00;107701;1245;72019;-84
2023/10/11 01:32:41;;;;;;;76.70;51.50;;;;;;;0.87;100.00;102053.75;107761;1244;70438;-88
2023/10/11 01:35:20;;;;;;;72.30;50.80;;;;;;;0.78;100.00;102062.09;108056;1242;68347;-89
2023/10/11 01:37:55;;;;;;;61.40;44.90;;;;;;;0.68;100.00;102062.52;107626;1252;73238;-87
2023/10/11 01:40:24;;;;;;;48.90;35.90;;;;;;;0.59;100.00;102065.52;107347;1245;62913;-85
2023/10/11 01:42:53;;;;;;;32.40;22.90;;;;;;;0.51;100.00;102067.98;107427;1244;58880;-77
2023/10/11 01:45:23;;;;;;;32.60;22.40;;;;;;;0.44;100.00;102068.76;107349;1245;71771;-87
2023/10/11 01:47:56;;;;;;;35.30;25.00;;;;;;;0.40;100.00;102069.81;107261;1253;70038;-79
2023/10/11 01:50:25;;;;;;;49.10;29.90;;;;;;;0.47;100.00;102069.23;107622;1244;68403;-87
2023/10/11 01:52:54;;;;;;;39.20;28.80;;;;;;;0.70;100.00;102070.90;107738;1252;74232;-86
2023/10/11 01:55:23;;;;;;;25.80;18.40;;;;;;;0.69;100.00;102072.29;107668;1245;61984;-83
2023/10/11 01:57:53;;;;;;;26.20;16.10;;;;;;;0.61;100.00;102080.59;108189;1244;61687;-77
2023/10/11 02:00:29;;;;;;;25.70;17.50;;;;;;;0.51;100.00;102081.02;108490;1245;70636;-83
2023/10/11 02:02:58;;;;;;;68.80;54.80;;;;;;;0.40;100.00;102082.83;108625;1245;71370;-84
2023/10/11 02:05:31;;;;;;;67.40;52.90;;;;;;;0.29;100.00;102084.13;107593;1254;69696;-86
2023/10/11 02:08:04;;;;;;;58.40;46.50;;;;;;;0.24;100.00;102084.67;107305;1249;72842;-85
2023/10/11 02:10:36;;;;;;;57.10;47.80;;;;;;;0.36;100.00;102089.73;107224;1245;61618;-87
2023/10/11 02:13:06;;;;;;;50.00;37.00;;;;;;;0.35;100.00;102088.36;107389;1245;60256;-87
2023/10/11 02:15:37;;;;;;;24.80;16.20;;;;;;;0.30;100.00;102087.38;107304;1256;72604;-85
2023/10/11 02:18:10;;;;;;;22.90;15.80;;;;;;;0.20;100.00;102085.21;107272;1247;71413;-87
2023/10/11 02:20:44;;;;;;;25.60;17.40;;;;;;;0.19;100.00;102084.02;107406;1246;68940;-85
2023/10/11 02:23:13;;;;;;;22.20;15.60;;;;;;;0.26;100.00;102085.52;107169;1246;71196;-85
2023/10/11 02:25:42;;;;;;;28.40;18.70;;;;;;;0.46;100.00;102080.54;107424;1245;61513;-85
2023/10/11 02:28:14;;;;;;;33.50;22.90;;;;;;;0.48;100.00;102085.85;107402;1245;61111;-84
2023/10/11 02:30:43;;;;;;;42.80;30.70;;;;;;;0.42;100.00;102088.13;107505;1249;72485;-84
2023/10/11 02:33:13;;;;;;;71.90;52.70;;;;;;;0.32;100.00;102092.66;107338;1243;72473;-90
2023/10/11 02:35:55;;;;;;;77.70;57.00;;;;;;;0.23;100.00;102095.30;107505;1244;70524;-87
2023/10/11 02:38:25;;;;;;;50.80;37.70;;;;;;;0.15;100.00;102095.70;107155;1248;71741;-85
2023/10/11 02:40:57;;;;;;;31.40;24.90;;;;;;;0.07;100.00;102093.70;107142;1256;62413;-85
2023/10/11 02:43:26;;;;;;;26.50;19.50;;;;;;;0.05;100.00;102090.10;107267;1245;59951;-86
2023/10/11 02:45:58;;;;;;;28.70;21.10;;;;;;;0.03;100.00;102091.85;107089;1246;69644;-79
2023/10/11 02:48:28;;;;;;;30.90;21.70;;;;;;;-0.01;100.00;102098.89;107095;1245;70454;-86
2023/10/11 02:50:58;;;;;;;38.10;27.20;;;;;;;-0.03;100.00;102106.11;107087;1257;70035;-84
2023/10/11 02:53:28;;;;;;;59.40;46.50;;;;;;;-0.05;100.00;102108.02;107161;1257;74450;-85
2023/10/11 02:55:59;;;;;;;27.30;20.90;;;;;;;-0.08;100.00;102105.96;107166;1246;60742;-86
2023/10/11 02:58:32;;;;;;;25.90;18.40;;;;;;;-0.09;100.00;102110.77;107157;1244;61342;-87
2023/10/11 03:01:04;;;;;;;26.70;17.00;;;;;;;-0.08;100.00;102112.64;107107;1248;72260;-81
2023/10/11 03:03:52;;;;;;;35.70;20.60;;;;;;;-0.08;100.00;102116.58;107160;1257;72830;-80
2023/10/11 03:06:27;;;;;;;35.60;25.00;;;;;;;-0.10;100.00;102121.05;107099;1256;68091;-79
2023/10/11 03:08:56;;;;;;;42.90;29.60;;;;;;;-0.14;100.00;102121.76;107231;1246;71870;-80
2023/10/11 03:11:25;;;;;;;35.40;19.50;;;;;;;-0.00;100.00;102119.78;107151;1245;59468;-81
2023/10/11 03:13:55;;;;;;;23.40;16.30;;;;;;;-0.03;100.00;102119.98;107366;1243;60952;-81
2023/10/11 03:16:24;;;;;;;21.50;14.20;;;;;;;-0.05;100.00;102119.65;107321;1256;72785;-82
2023/10/11 03:18:53;;;;;;;23.10;15.30;;;;;;;-0.08;100.00;102118.80;107377;1251;70536;-85
2023/10/11 03:21:33;;;;;;;22.60;14.50;;;;;;;-0.12;100.00;102114.38;107297;1251;70431;-84
2023/10/11 03:24:06;;;;;;;23.90;14.90;;;;;;;-0.11;100.00;102106.84;107306;1254;72456;-86
2023/10/11 03:26:38;;;;;;;26.30;16.60;;;;;;;0.01;100.00;102107.77;107306;1248;60205;-83
2023/10/11 03:29:17;;;;;;;26.40;16.60;;;;;;;-0.05;100.00;102106.11;107402;1244;59354;-85
2023/10/11 03:31:48;;;;;;;35.60;22.10;;;;;;;-0.09;100.00;102103.40;107355;1256;72159;-87
2023/10/11 03:34:20;;;;;;;51.90;33.30;;;;;;;-0.11;100.00;102107.52;107296;1245;72566;-85
2023/10/11 03:36:52;;;;;;;58.90;35.30;;;;;;;0.02;100.00;102104.52;107204;1248;68472;-81
2023/10/11 03:42:07;;;;;;;45.50;24.80;;;;;;;-0.01;100.00;102101.81;107247;1245;62132;-83
2023/10/11 03:44:40;;;;;;;26.00;18.10;;;;;;;-0.02;100.00;102099.06;107224;1246;59804;-83
2023/10/11 03:47:09;;;;;;;38.80;23.10;;;;;;;-0.06;100.00;102103.73;107378;1245;73026;-85
2023/10/11 03:52:19;;;;;;;43.10;25.50;;;;;;;-0.07;100.00;102118.29;107507;1253;67923;-80
2023/10/11 03:54:54;;;;;;;32.80;19.40;;;;;;;-0.05;100.00;102114.85;107387;1245;73231;-82
2023/10/11 03:57:23;;;;;;;26.30;16.10;;;;;;;0.02;100.00;102114.47;107531;1246;60828;-87
2023/10/11 03:59:53;;;;;;;27.50;16.10;;;;;;;-0.04;100.00;102114.84;107420;1245;59109;-83
2023/10/11 04:02:23;;;;;;;27.30;16.10;;;;;;;-0.09;100.00;102107.00;107194;1244;72471;-80
2023/10/11 04:04:52;;;;;;;29.10;16.30;;;;;;;-0.15;100.00;102111.66;107264;1244;70666;-81
2023/10/11 04:07:23;;;;;;;38.10;20.90;;;;;;;-0.20;100.00;102108.95;107052;1248;69456;-86
2023/10/11 04:09:52;;;;;;;31.80;19.30;;;;;;;-0.25;100.00;102108.11;107258;1244;73580;-81
2023/10/11 04:12:24;;;;;;;32.70;19.20;;;;;;;-0.28;100.00;102108.48;107352;1245;61522;-79
2023/10/11 04:14:57;;;;;;;34.70;20.10;;;;;;;-0.08;100.00;102106.65;107350;1244;59865;-77
2023/10/11 04:17:26;;;;;;;;;;;;;;;-0.11;100.00;102104.95;107448;1245;73333;-82
2023/10/11 04:20:17;;;;;;;32.30;21.90;;;;;;;-0.15;100.00;102101.73;107259;1246;72953;-84
2023/10/11 04:23:10;;;;;;;35.80;24.30;;;;;;;-0.20;100.00;102102.09;107142;1244;70866;-76
2023/10/11 15:51:08;;;;;;;10.10;4.70;;;;;;;14.86;75.61;101758.73;104693;1283;600990;-82
2023/10/11 15:53:38;;;;;;;9.20;5.30;;;;;;;14.75;76.66;101760.65;106394;1261;59046;-84
2023/10/11 15:56:16;;;;;;;10.10;4.90;;;;;;;14.73;76.13;101761.10;107058;1248;57295;-83
2023/10/11 15:58:46;;;;;;;11.10;5.20;;;;;;;14.67;77.09;101764.70;106885;1260;71006;-82
2023/10/11 16:01:16;;;;;;;12.50;4.80;;;;;;;14.60;77.04;101763.48;106874;1259;62104;-82
2023/10/11 16:03:52;;;;;;;11.20;4.50;;;;;;;14.58;76.82;101765.04;106303;1258;698751;-82
2023/10/11 16:06:24;;;;;;;9.60;4.20;;;;;;;14.60;76.59;101762.10;106901;1247;72983;-83
2023/10/11 16:08:54;;;;;;;9.50;4.50;;;;;;;14.54;77.24;101764.61;108676;1248;57434;-83
2023/10/11 16:11:23;;;;;;;8.90;4.70;;;;;;;14.48;77.99;101763.65;108444;1248;57600;-78
2023/10/11 16:13:53;;;;;;;10.00;4.90;;;;;;;14.38;78.81;101762.92;108584;1248;71131;-78
2023/10/11 16:16:22;;;;;;;10.40;5.30;;;;;;;14.34;78.77;101763.77;107103;1247;62143;-79
2023/10/11 16:18:51;;;;;;;7.90;4.70;;;;;;;14.32;78.96;101761.10;107551;1248;69453;-79
2023/10/11 16:21:21;;;;;;;9.60;5.10;;;;;;;14.33;78.55;101758.71;107582;1248;74256;-79
2023/10/11 16:23:51;;;;;;;10.50;4.80;;;;;;;14.29;79.00;101759.55;107494;1248;61165;-83
2023/10/11 16:26:29;;;;;;;10.40;5.10;;;;;;;14.29;78.75;101761.09;107498;1245;60792;-80
2023/10/11 16:29:01;;;;;;;8.00;5.10;;;;;;;14.22;79.51;101758.63;107055;1245;73056;-81
2023/10/11 16:31:34;;;;;;;7.80;4.70;;;;;;;14.14;79.36;101759.71;109250;1245;61230;-79
2023/10/11 16:34:03;;;;;;;11.50;6.00;;;;;;;14.14;79.19;101761.86;109146;1245;59552;-80
2023/10/11 16:36:34;;;;;;;11.70;5.30;;;;;;;14.18;79.00;101762.29;108884;1244;63633;-78
2023/10/11 16:39:03;;;;;;;8.00;5.30;;;;;;;14.18;78.99;101762.27;109105;1248;60265;-87
2023/10/11 16:41:32;;;;;;;11.90;7.10;;;;;;;14.16;79.03;101759.79;109142;1246;58131;-83
2023/10/11 16:44:04;;;;;;;11.90;5.90;;;;;;;14.19;78.51;101763.80;109222;1244;61118;-83
2023/10/11 16:46:33;;;;;;;13.70;6.40;;;;;;;14.16;78.24;101750.64;109260;1244;72116;-83
2023/10/11 16:49:02;;;;;;;12.40;6.40;;;;;;;14.19;78.09;101761.86;109215;1248;69989;-81
2023/10/11 16:51:35;;;;;;;10.40;5.50;;;;;;;14.18;78.27;101761.39;109088;1244;74053;-79
2023/10/11 16:54:28;;;;;;;11.20;6.00;;;;;;;14.13;78.38;101756.30;109192;1245;61412;-80
2023/10/11 16:56:59;;;;;;;;;;;;;;;14.11;78.29;101756.34;109223;1246;57576;-79
2023/10/11 16:59:28;;;;;;;14.90;5.60;;;;;;;14.06;78.57;101754.16;109232;1245;71398;-79
2023/10/11 17:01:57;;;;;;;15.00;5.60;;;;;;;14.00;78.91;101752.15;109237;1245;73331;-85
2023/10/11 17:04:25;;;;;;;12.80;5.80;;;;;;;13.94;79.26;101753.83;109254;1246;61854;-87
2023/10/11 17:06:54;;;;;;;15.20;5.70;;;;;;;13.83;79.99;101752.30;109227;1246;73857;-85
2023/10/11 17:09:23;;;;;;;10.90;5.30;;;;;;;13.74;80.52;101753.29;109233;1247;57151;-85
2023/10/11 17:11:52;;;;;;;10.00;5.50;;;;;;;13.68;81.02;101751.40;109257;1245;57651;-80
2023/10/11 17:14:22;;;;;;;11.30;5.90;;;;;;;13.62;81.70;101751.48;109289;1244;71806;-81
2023/10/11 17:16:50;;;;;;;13.00;5.80;;;;;;;13.69;80.92;101748.19;109305;1244;71938;-81
2023/10/11 17:19:20;;;;;;;11.30;6.00;;;;;;;13.66;80.71;101750.63;109278;1244;61040;-81
2023/10/11 17:21:48;;;;;;;13.10;5.80;;;;;;;13.64;80.79;101746.31;109364;1245;72845;-80
2023/10/11 17:24:17;;;;;;;11.80;6.00;;;;;;;13.62;81.02;101744.84;109377;1248;57171;-84
2023/10/11 17:26:46;;;;;;;13.30;6.30;;;;;;;13.56;81.26;101738.07;109288;1247;60205;-79
2023/10/11 17:29:15;;;;;;;11.60;5.90;;;;;;;13.51;81.58;101735.39;109422;1244;62786;-79
2023/10/11 17:31:44;;;;;;;14.70;5.70;;;;;;;13.52;81.19;101737.44;109378;1244;63218;-79
2023/10/11 17:34:15;;;;;;;11.50;5.60;;;;;;;13.55;81.09;101735.31;109281;1244;60395;-87
2023/10/11 18:08:45;;;;;;;9.70;5.20;;;;;;;13.36;81.87;101713.85;104692;1279;602090;-89
2023/10/11 18:11:14;;;;;;;10.60;4.90;;;;;;;13.23;82.50;101714.77;106587;1262;59040;-88
2023/10/11 18:13:44;;;;;;;9.70;5.10;;;;;;;13.23;81.92;101713.20;106351;1257;59047;-86
2023/10/11 18:16:13;;;;;;;12.10;4.70;;;;;;;13.22;82.00;101713.94;106370;1256;71591;-88
2023/10/11 18:18:42;;;;;;;11.70;5.40;;;;;;;13.13;82.51;101713.11;107175;1251;62126;-87
2023/10/11 18:21:11;;;;;;;10.10;4.50;;;;;;;13.15;82.27;101714.71;107602;1251;246431;-76
2023/10/11 18:23:41;;;;;;;10.80;4.30;;;;;;;13.11;83.01;101716.08;107513;1249;73506;-89
2023/10/11 18:26:10;;;;;;;11.20;4.90;;;;;;;13.03;83.35;101716.10;107053;1247;61180;-91
2023/10/11 18:28:39;;;;;;;11.30;4.70;;;;;;;12.97;83.75;101716.10;107606;1248;57559;-90
2023/10/11 18:31:10;;;;;;;9.80;4.20;;;;;;;12.92;83.81;101718.89;108585;1247;60340;-83
2023/10/11 18:33:40;;;;;;;8.80;4.40;;;;;;;12.89;83.96;101722.05;108368;1248;72192;-79
2023/10/11 18:36:10;;;;;;;14.80;4.20;;;;;;;12.88;84.08;101716.91;108679;1246;71602;-87
2023/10/11 18:38:39;;;;;;;10.10;4.30;;;;;;;12.86;84.44;101717.02;107983;1248;74106;-80
2023/10/11 18:41:09;;;;;;;7.30;4.30;;;;;;;12.83;85.12;101710.95;107256;1246;60904;-80
2023/10/11 18:43:38;;;;;;;14.30;4.70;;;;;;;12.80;84.50;101710.60;107279;1247;60695;-88
2023/10/11 18:46:09;;;;;;;11.50;4.60;;;;;;;12.82;84.67;101707.67;107262;1247;72620;-86
2023/10/11 18:48:50;;;;;;;9.90;5.30;;;;;;;12.80;84.82;101710.44;106948;1247;61381;-85
2023/10/11 18:51:28;;;;;;;9.00;4.30;;;;;;;12.74;84.59;101711.89;107202;1243;70681;-84
2023/10/11 18:53:57;;;;;;;12.40;4.40;;;;;;;12.71;85.59;101710.98;107387;1247;63572;-85
2023/10/11 18:56:35;;;;;;;8.30;3.80;;;;;;;12.71;85.57;101705.43;107282;1256;61235;-84
2023/10/11 18:59:05;;;;;;;8.60;4.20;;;;;;;12.67;86.18;101707.05;107287;1247;59028;-84
2023/10/11 19:01:34;;;;;;;9.60;3.80;;;;;;;12.65;86.52;101707.41;107197;1257;72655;-84
2023/10/11 19:04:03;;;;;;;13.40;5.20;;;;;;;12.63;85.76;101706.86;107265;1243;71919;-85
2023/10/11 19:06:33;;;;;;;8.60;3.50;;;;;;;12.60;86.42;101706.34;107296;1246;71108;-79
2023/10/11 19:09:06;;;;;;;13.10;4.10;;;;;;;12.56;86.27;101704.47;108316;1245;62836;-83
2023/10/11 19:11:41;;;;;;;8.60;4.40;;;;;;;12.51;87.03;101706.94;108888;1245;61259;-85
2023/10/11 19:14:10;;;;;;;11.50;4.40;;;;;;;12.46;87.21;101707.40;107818;1246;61102;-81
2023/10/11 19:16:42;;;;;;;11.60;4.50;;;;;;;12.41;88.23;101709.95;107700;1245;70785;-84
2023/10/11 19:19:12;;;;;;;11.10;3.70;;;;;;;12.36;87.76;101703.48;107463;1245;71707;-80
2023/10/11 19:21:41;;;;;;;8.10;3.90;;;;;;;12.35;87.98;101701.79;107241;1243;70790;-82
2023/10/11 19:24:10;;;;;;;8.90;3.30;;;;;;;12.33;88.46;101701.63;107390;1244;64557;-80
2023/10/11 19:26:39;;;;;;;8.70;3.90;;;;;;;12.44;87.20;101697.57;107332;1248;60485;-80
2023/10/11 19:29:08;;;;;;;10.90;3.90;;;;;;;12.43;87.69;101694.65;107232;1244;61688;-81
2023/10/11 19:31:38;;;;;;;7.60;3.70;;;;;;;12.46;87.39;101693.07;107334;1242;72868;-85
2023/10/11 19:34:07;;;;;;;7.80;3.50;;;;;;;12.50;86.68;101690.77;107689;1245;71354;-83
2023/10/11 19:36:36;;;;;;;10.60;3.80;;;;;;;12.48;86.98;101693.30;107535;1256;59762;-83
2023/10/11 19:39:05;;;;;;;13.80;4.00;;;;;;;12.42;88.23;101692.61;107561;1244;62564;-83
2023/10/11 19:41:36;;;;;;;10.70;4.40;;;;;;;12.33;89.07;101693.39;107999;1243;58971;-85
2023/10/11 19:44:05;;;;;;;9.00;4.70;;;;;;;12.29;89.12;101691.73;108396;1243;58805;-84
2023/10/11 19:46:34;;;;;;;11.50;4.50;;;;;;;12.20;90.58;101693.38;107997;1243;61407;-86
2023/10/11 19:49:03;;;;;;;9.80;4.30;;;;;;;12.13;90.87;101698.13;107523;1243;70004;-81
2023/10/11 19:51:35;;;;;;;6.10;3.40;;;;;;;12.09;91.32;101695.27;107463;1255;59501;-78
2023/10/11 19:54:04;;;;;;;9.40;3.80;;;;;;;12.07;90.99;101694.33;107413;1244;63050;-85
2023/10/11 19:56:33;;;;;;;9.70;4.90;;;;;;;12.07;90.36;101691.73;107403;1245;59101;-84
2023/10/11 19:59:02;;;;;;;10.70;3.60;;;;;;;12.04;90.54;101688.44;107602;1251;59071;-85
2023/10/11 20:01:32;;;;;;;9.50;4.20;;;;;;;12.02;91.31;101689.27;107608;1246;62183;-83
2023/10/11 20:04:03;;;;;;;9.90;4.60;;;;;;;12.00;90.67;101689.20;107465;1244;60735;-83
2023/10/11 20:06:33;;;;;;;7.70;4.30;;;;;;;11.94;91.00;101691.13;107397;1243;70365;-82
2023/10/11 20:09:04;;;;;;;8.20;3.40;;;;;;;11.86;91.93;101692.56;107113;1256;73667;-80
2023/10/11 20:11:36;;;;;;;9.80;3.80;;;;;;;11.78;92.05;101698.73;107279;1247;62880;-81
2023/10/11 20:14:05;;;;;;;;;;;;;;;11.72;94.12;101693.38;107614;1248;60795;-84
2023/10/11 20:16:34;;;;;;;8.90;3.70;;;;;;;11.62;92.08;101695.70;107496;1247;72373;-87
2023/10/11 20:19:04;;;;;;;8.80;3.70;;;;;;;11.56;93.81;101691.90;107323;1254;63390;-81
2023/10/11 20:21:34;;;;;;;8.30;4.40;;;;;;;11.51;94.34;101686.96;107721;1250;59988;-84
2023/10/11 20:24:04;;;;;;;9.20;3.70;;;;;;;11.48;93.83;101685.23;107358;1243;73788;-82
2023/10/11 20:26:32;;;;;;;7.20;4.10;;;;;;;11.43;94.97;101682.19;107363;1246;61595;-80
2023/10/11 20:29:02;;;;;;;6.30;3.40;;;;;;;11.37;93.61;101684.15;108062;1246;57269;-88
2023/10/11 20:31:31;;;;;;;10.90;3.60;;;;;;;11.32;96.20;101683.78;108706;1243;72083;-86
2023/10/11 20:34:01;;;;;;;10.30;3.80;;;;;;;11.27;95.94;101678.84;108095;1244;61177;-78
2023/10/11 20:36:30;;;;;;;5.70;3.10;;;;;;;11.27;95.48;101674.67;107251;1244;59767;-82
2023/10/11 20:38:59;;;;;;;10.50;4.00;;;;;;;11.24;96.78;101675.85;107308;1243;62772;-81
2023/10/11 20:41:28;;;;;;;9.40;3.50;;;;;;;11.21;96.71;101676.39;107394;1245;59417;-86
2023/10/11 20:43:58;;;;;;;11.00;3.90;;;;;;;11.17;96.40;101678.54;107587;1253;59082;-89
2023/10/11 20:46:27;;;;;;;8.40;3.50;;;;;;;11.15;97.62;101676.39;108032;1245;61412;-91
2023/10/11 20:48:56;;;;;;;7.00;3.30;;;;;;;11.12;96.51;101676.23;107682;1248;61619;-88
2023/10/11 20:51:26;;;;;;;8.50;3.50;;;;;;;11.10;97.63;101672.34;107613;1244;70475;-86
2023/10/11 20:53:57;;;;;;;10.10;3.50;;;;;;;11.09;97.62;101675.90;107197;1249;74203;-76
2023/10/11 20:56:28;;;;;;;9.50;3.90;;;;;;;11.07;97.73;101671.47;107381;1245;58941;-81
2023/10/11 20:59:06;;;;;;;8.20;3.30;;;;;;;11.06;96.65;101667.02;107280;1243;60514;-81
2023/10/11 21:01:36;;;;;;;16.40;4.20;;;;;;;11.03;97.75;101663.67;107395;1244;73100;-82
2023/10/11 21:04:05;;;;;;;9.90;3.60;;;;;;;11.02;96.98;101665.70;107602;1245;62415;-90
2023/10/11 21:06:34;;;;;;;9.10;3.80;;;;;;;11.02;98.39;101665.45;108319;1244;68445;-90
2023/10/11 21:09:04;;;;;;;13.70;3.80;;;;;;;11.05;98.39;101666.02;107698;1244;63380;-80
2023/10/11 21:11:36;;;;;;;7.20;3.50;;;;;;;11.33;97.57;101669.37;107399;1245;60047;-82
2023/10/11 21:14:05;;;;;;;9.50;3.50;;;;;;;11.68;95.12;101667.45;107157;1256;60618;-79
2023/10/11 21:16:34;;;;;;;10.30;3.60;;;;;;;11.80;94.26;101667.02;107210;1255;73233;-80
2023/10/11 21:19:04;;;;;;;10.80;4.00;;;;;;;11.88;93.71;101667.95;107202;1244;72240;-78
2023/10/11 21:21:34;;;;;;;10.50;3.90;;;;;;;11.93;93.08;101663.61;107289;1244;71405;-80
2023/10/11 21:24:05;;;;;;;7.30;3.20;;;;;;;12.05;92.45;101664.60;107197;1246;63422;-79
2023/10/11 21:26:33;;;;;;;7.70;3.70;;;;;;;12.10;92.02;101656.95;107265;1244;61146;-80
2023/10/11 21:29:03;;;;;;;9.10;4.20;;;;;;;12.11;92.22;101656.56;107306;1256;61246;-87
2023/10/11 21:31:36;;;;;;;8.60;3.60;;;;;;;12.11;92.17;101654.11;108274;1243;72343;-86
2023/10/11 21:34:10;;;;;;;10.40;3.90;;;;;;;12.11;92.13;101653.25;108496;1244;62738;-85
2023/10/11 21:36:39;;;;;;;10.90;4.00;;;;;;;12.10;92.11;101650.69;107829;1245;69732;-92
2023/10/11 21:39:18;;;;;;;8.60;3.60;;;;;;;12.14;92.12;101649.40;107244;1245;74166;-85
2023/10/11 21:41:47;;;;;;;10.90;3.90;;;;;;;12.12;92.28;101648.45;107105;1247;60819;-85
2023/10/11 21:44:16;;;;;;;12.60;4.30;;;;;;;12.08;92.62;101647.48;107280;1245;58464;-83
2023/10/11 21:46:46;;;;;;;11.40;3.70;;;;;;;12.06;93.16;101646.60;107196;1243;72704;-83
2023/10/11 21:49:15;;;;;;;9.30;3.60;;;;;;;11.98;93.26;101647.41;107216;1245;61257;-82
2023/10/11 21:51:44;;;;;;;8.20;3.50;;;;;;;11.87;93.61;101646.16;107218;1252;59009;-83
2023/10/11 21:54:16;;;;;;;10.50;4.00;;;;;;;11.78;93.77;101646.25;107136;1248;73866;-85
2023/10/11 21:56:49;;;;;;;9.40;3.40;;;;;;;11.66;93.77;101647.82;107259;1246;60959;-86
2023/10/11 21:59:18;;;;;;;6.80;3.80;;;;;;;11.54;94.50;101653.43;107222;1246;60624;-82
2023/10/11 22:01:52;;;;;;;11.00;3.90;;;;;;;11.46;96.69;101652.93;107118;1244;72627;-84
2023/10/11 22:04:21;;;;;;;12.80;3.70;;;;;;;11.45;97.24;101650.71;107089;1248;72702;-82
2023/10/11 22:06:50;;;;;;;6.10;3.50;;;;;;;11.41;97.93;101649.54;107118;1251;70787;-83
2023/10/11 22:09:22;;;;;;;7.80;3.50;;;;;;;11.39;98.30;101647.70;107181;1244;73134;-83
2023/10/11 22:11:51;;;;;;;12.10;4.10;;;;;;;11.40;98.43;101648.91;107361;1246;58872;-86
2023/10/11 22:14:25;;;;;;;10.40;4.30;;;;;;;11.52;97.34;101647.80;107525;1257;58377;-87
2023/10/11 22:16:53;;;;;;;10.10;3.90;;;;;;;11.52;97.47;101651.48;107567;1248;72700;-84
2023/10/11 22:19:25;;;;;;;9.50;3.50;;;;;;;11.46;97.60;101653.41;107103;1243;71058;-82
2023/10/11 22:21:54;;;;;;;6.80;3.80;;;;;;;11.47;98.04;101655.30;107130;1246;60633;-82
2023/10/11 22:24:23;;;;;;;10.30;4.70;;;;;;;11.53;97.60;101653.36;107066;1249;63242;-81
2023/10/11 22:26:52;;;;;;;10.60;5.20;;;;;;;11.56;97.34;101651.91;107192;1246;58958;-88
2023/10/11 22:29:23;;;;;;;8.50;4.10;;;;;;;11.56;98.02;101647.04;107077;1248;58256;-81
2023/10/11 22:31:52;;;;;;;7.20;3.60;;;;;;;11.52;98.12;101645.23;107153;1254;62944;-81
2023/10/11 22:34:21;;;;;;;8.40;3.70;;;;;;;11.44;97.67;101646.43;107154;1256;72482;-84
2023/10/11 22:36:51;;;;;;;9.90;3.50;;;;;;;11.39;99.06;101641.98;107681;1245;71119;-81
2023/10/11 22:39:20;;;;;;;11.70;4.10;;;;;;;11.32;98.55;101644.15;107706;1246;72741;-82
2023/10/11 22:41:51;;;;;;;10.30;3.50;;;;;;;11.25;99.58;101646.36;107617;1242;59025;-82
2023/10/11 22:44:20;;;;;;;8.40;4.00;;;;;;;11.17;100.00;101649.58;107635;1241;58475;-83
2023/10/11 22:46:49;;;;;;;18.90;4.80;;;;;;;11.10;100.00;101651.25;107643;1242;71324;-83
2023/10/11 22:49:18;;;;;;;8.50;4.00;;;;;;;11.04;100.00;101649.50;107733;1239;61621;-82
2023/10/11 22:51:48;;;;;;;8.50;3.70;;;;;;;10.99;99.84;101643.55;107609;1249;59607;-82
2023/10/11 22:54:17;;;;;;;10.00;4.10;;;;;;;10.95;100.00;101640.96;107670;1247;73329;-81
2023/10/11 22:56:46;;;;;;;7.50;3.80;;;;;;;10.97;100.00;101643.81;107469;1243;60892;-85
2023/10/11 22:59:17;;;;;;;8.70;3.60;;;;;;;10.94;100.00;101642.28;107630;1240;61714;-84
2023/10/11 23:01:46;;;;;;;8.10;3.70;;;;;;;10.88;100.00;101646.64;107692;1238;74050;-84
2023/10/11 23:04:14;;;;;;;8.20;3.70;;;;;;;10.82;100.00;101647.98;107647;1241;71595;-82
2023/10/11 23:06:43;;;;;;;6.30;3.60;;;;;;;10.80;100.00;101647.10;107917;1241;59738;-79
2023/10/11 23:09:18;;;;;;;10.70;3.80;;;;;;;10.77;100.00;101643.61;107666;1241;62621;-83
2023/10/11 23:11:53;;;;;;;6.90;3.90;;;;;;;10.71;100.00;101642.93;108569;1239;60459;-83
2023/10/11 23:14:22;;;;;;;6.40;3.60;;;;;;;10.64;100.00;101646.25;107470;1239;60779;-81
2023/10/11 23:16:51;;;;;;;8.60;3.90;;;;;;;10.56;100.00;101645.70;107691;1247;62778;-85
2023/10/11 23:19:22;;;;;;;8.30;4.00;;;;;;;10.43;100.00;101643.83;107648;1239;70901;-84
2023/10/11 23:21:53;;;;;;;11.60;4.60;;;;;;;10.29;100.00;101643.92;107851;1237;68901;-83
2023/10/11 23:24:38;;;;;;;6.40;4.10;;;;;;;10.16;100.00;101648.64;107726;1241;65116;-84
2023/10/11 23:27:10;;;;;;;8.00;4.40;;;;;;;10.04;100.00;101648.27;107743;1237;58822;-83